sensor_id;sensor_type;location;lat;lon;timestamp;pressure;altitude;pressure_sealevel;temperature;humidity
16525;BME280;8375;33.594;-117.718;2024-03-08T00:00:33;100004.66;;;17.38;68.51
16525;BME280;8375;33.594;-117.718;2024-03-08T00:03:01;100008.78;;;17.32;66.97
16525;BME280;8375;33.594;-117.718;2024-03-08T00:05:33;100010.44;;;17.25;66.89
16525;BME280;8375;33.594;-117.718;2024-03-08T00:08:02;100006.34;;;17.06;68.50
16525;BME280;8375;33.594;-117.718;2024-03-08T00:10:31;100001.41;;;17.11;70.65
16525;BME280;8375;33.594;-117.718;2024-03-08T00:12:59;100006.19;;;17.15;70.26
16525;BME280;8375;33.594;-117.718;2024-03-08T00:15:32;100003.03;;;17.20;70.36
16525;BME280;8375;33.594;-117.718;2024-03-08T00:18:01;100003.91;;;17.04;69.61
16525;BME280;8375;33.594;-117.718;2024-03-08T00:20:29;100003.91;;;17.04;72.49
16525;BME280;8375;33.594;-117.718;2024-03-08T00:22:58;100003.06;;;17.12;74.00
16525;BME280;8375;33.594;-117.718;2024-03-08T00:25:27;100005.84;;;16.77;71.52
16525;BME280;8375;33.594;-117.718;2024-03-08T00:27:55;100002.72;;;16.65;73.87
16525;BME280;8375;33.594;-117.718;2024-03-08T00:30:24;100008.47;;;16.77;74.90
16525;BME280;8375;33.594;-117.718;2024-03-08T00:32:54;100008.13;;;16.80;76.62
16525;BME280;8375;33.594;-117.718;2024-03-08T00:35:23;100010.91;;;16.79;75.00
16525;BME280;8375;33.594;-117.718;2024-03-08T00:37:51;100010.09;;;16.70;73.91
16525;BME280;8375;33.594;-117.718;2024-03-08T00:40:23;100015.31;;;16.53;74.67
16525;BME280;8375;33.594;-117.718;2024-03-08T00:42:51;100017.63;;;16.65;75.30
16525;BME280;8375;33.594;-117.718;2024-03-08T00:45:21;100019.25;;;16.66;77.31
16525;BME280;8375;33.594;-117.718;2024-03-08T00:47:55;100022.53;;;16.60;76.00
16525;BME280;8375;33.594;-117.718;2024-03-08T00:50:23;100032.34;;;16.57;74.72
16525;BME280;8375;33.594;-117.718;2024-03-08T00:52:52;100021.03;;;16.49;73.08
16525;BME280;8375;33.594;-117.718;2024-03-08T00:55:21;100023.16;;;16.45;76.33
16525;BME280;8375;33.594;-117.718;2024-03-08T00:57:49;100020.53;;;16.37;76.30
16525;BME280;8375;33.594;-117.718;2024-03-08T01:00:20;100019.19;;;16.24;77.48
16525;BME280;8375;33.594;-117.718;2024-03-08T01:02:49;100031.41;;;16.16;78.91
16525;BME280;8375;33.594;-117.718;2024-03-08T01:05:19;100041.41;;;16.12;78.29
16525;BME280;8375;33.594;-117.718;2024-03-08T01:07:47;100056.91;;;16.05;78.90
16525;BME280;8375;33.594;-117.718;2024-03-08T01:10:16;100054.13;;;15.98;78.32
16525;BME280;8375;33.594;-117.718;2024-03-08T01:12:45;100061.44;;;15.95;77.89
16525;BME280;8375;33.594;-117.718;2024-03-08T01:15:13;100064.84;;;15.87;80.02
16525;BME280;8375;33.594;-117.718;2024-03-08T01:17:42;100080.78;;;15.76;78.97
16525;BME280;8375;33.594;-117.718;2024-03-08T01:20:11;100086.75;;;15.60;79.06
16525;BME280;8375;33.594;-117.718;2024-03-08T01:22:42;100090.28;;;15.50;79.72
16525;BME280;8375;33.594;-117.718;2024-03-08T01:25:10;100097.28;;;15.50;81.11
16525;BME280;8375;33.594;-117.718;2024-03-08T01:27:39;100094.25;;;15.36;81.48
16525;BME280;8375;33.594;-117.718;2024-03-08T01:30:08;100100.16;;;15.38;82.26
16525;BME280;8375;33.594;-117.718;2024-03-08T01:32:37;100100.25;;;15.29;84.89
16525;BME280;8375;33.594;-117.718;2024-03-08T01:35:07;100105.25;;;15.22;83.70
16525;BME280;8375;33.594;-117.718;2024-03-08T01:37:36;100112.41;;;15.20;86.51
16525;BME280;8375;33.594;-117.718;2024-03-08T01:40:08;100116.59;;;15.13;86.62
16525;BME280;8375;33.594;-117.718;2024-03-08T01:42:36;100114.09;;;15.03;91.74
16525;BME280;8375;33.594;-117.718;2024-03-08T01:45:06;100111.69;;;15.09;94.11
16525;BME280;8375;33.594;-117.718;2024-03-08T01:47:35;100115.19;;;15.18;94.10
16525;BME280;8375;33.594;-117.718;2024-03-08T01:50:05;100119.66;;;15.26;95.98
16525;BME280;8375;33.594;-117.718;2024-03-08T01:52:35;100129.84;;;15.11;89.86
16525;BME280;8375;33.594;-117.718;2024-03-08T01:55:07;100119.22;;;14.94;89.32
16525;BME280;8375;33.594;-117.718;2024-03-08T01:57:36;100127.00;;;14.86;89.89
16525;BME280;8375;33.594;-117.718;2024-03-08T02:00:06;100134.97;;;14.85;91.46
16525;BME280;8375;33.594;-117.718;2024-03-08T02:02:38;100139.97;;;14.78;92.10
16525;BME280;8375;33.594;-117.718;2024-03-08T02:05:11;100141.06;;;14.75;92.31
16525;BME280;8375;33.594;-117.718;2024-03-08T02:07:41;100147.44;;;14.63;93.81
16525;BME280;8375;33.594;-117.718;2024-03-08T02:10:12;100152.94;;;14.60;94.72
16525;BME280;8375;33.594;-117.718;2024-03-08T02:12:41;100160.78;;;14.60;97.81
16525;BME280;8375;33.594;-117.718;2024-03-08T02:15:10;100166.16;;;14.58;99.18
16525;BME280;8375;33.594;-117.718;2024-03-08T02:17:38;100163.41;;;14.60;99.17
16525;BME280;8375;33.594;-117.718;2024-03-08T02:20:08;100169.69;;;14.67;100.00
16525;BME280;8375;33.594;-117.718;2024-03-08T02:22:41;100167.75;;;14.69;100.00
16525;BME280;8375;33.594;-117.718;2024-03-08T02:25:11;100173.69;;;14.71;100.00
16525;BME280;8375;33.594;-117.718;2024-03-08T02:27:39;100173.84;;;14.70;100.00
16525;BME280;8375;33.594;-117.718;2024-03-08T02:30:09;100174.78;;;14.69;100.00
16525;BME280;8375;33.594;-117.718;2024-03-08T02:32:39;100171.63;;;14.75;100.00
16525;BME280;8375;33.594;-117.718;2024-03-08T02:35:07;100169.97;;;14.74;100.00
16525;BME280;8375;33.594;-117.718;2024-03-08T02:37:36;100170.47;;;14.77;100.00
16525;BME280;8375;33.594;-117.718;2024-03-08T02:40:08;100178.50;;;14.76;100.00
16525;BME280;8375;33.594;-117.718;2024-03-08T02:42:38;100170.75;;;14.84;100.00
16525;BME280;8375;33.594;-117.718;2024-03-08T02:45:08;100174.03;;;14.86;100.00
16525;BME280;8375;33.594;-117.718;2024-03-08T02:47:37;100173.66;;;14.81;100.00
16525;BME280;8375;33.594;-117.718;2024-03-08T02:50:06;100179.16;;;14.78;100.00
16525;BME280;8375;33.594;-117.718;2024-03-08T02:52:38;100188.38;;;14.72;100.00
16525;BME280;8375;33.594;-117.718;2024-03-08T02:55:10;100197.34;;;14.60;100.00
16525;BME280;8375;33.594;-117.718;2024-03-08T02:57:41;100191.44;;;14.58;100.00
16525;BME280;8375;33.594;-117.718;2024-03-08T03:00:14;100198.78;;;14.54;100.00
16525;BME280;8375;33.594;-117.718;2024-03-08T03:02:42;100206.44;;;14.56;100.00
16525;BME280;8375;33.594;-117.718;2024-03-08T03:05:11;100198.91;;;14.52;100.00
16525;BME280;8375;33.594;-117.718;2024-03-08T03:07:40;100195.91;;;14.47;100.00
16525;BME280;8375;33.594;-117.718;2024-03-08T03:10:11;100200.31;;;14.47;100.00
16525;BME280;8375;33.594;-117.718;2024-03-08T03:12:43;100203.06;;;14.45;100.00
16525;BME280;8375;33.594;-117.718;2024-03-08T03:15:12;100206.78;;;14.43;100.00
16525;BME280;8375;33.594;-117.718;2024-03-08T03:17:41;100214.47;;;14.44;100.00
16525;BME280;8375;33.594;-117.718;2024-03-08T03:20:14;100207.75;;;14.42;100.00
16525;BME280;8375;33.594;-117.718;2024-03-08T03:22:49;100213.38;;;14.37;100.00
16525;BME280;8375;33.594;-117.718;2024-03-08T03:25:21;100207.66;;;14.33;100.00
16525;BME280;8375;33.594;-117.718;2024-03-08T03:27:52;100211.22;;;14.32;100.00
16525;BME280;8375;33.594;-117.718;2024-03-08T03:30:23;100221.09;;;14.29;100.00
16525;BME280;8375;33.594;-117.718;2024-03-08T03:32:53;100220.44;;;14.27;100.00
16525;BME280;8375;33.594;-117.718;2024-03-08T03:35:25;100224.00;;;14.26;100.00
16525;BME280;8375;33.594;-117.718;2024-03-08T03:37:53;100224.97;;;14.25;100.00
16525;BME280;8375;33.594;-117.718;2024-03-08T03:40:35;100230.34;;;14.23;100.00
16525;BME280;8375;33.594;-117.718;2024-03-08T03:43:04;100234.72;;;14.22;100.00
16525;BME280;8375;33.594;-117.718;2024-03-08T03:45:33;100241.88;;;14.20;100.00
16525;BME280;8375;33.594;-117.718;2024-03-08T03:48:03;100238.59;;;14.18;100.00
16525;BME280;8375;33.594;-117.718;2024-03-08T03:50:33;100232.00;;;14.14;100.00
16525;BME280;8375;33.594;-117.718;2024-03-08T03:53:03;100234.59;;;14.14;100.00
16525;BME280;8375;33.594;-117.718;2024-03-08T03:55:35;100227.91;;;14.12;100.00
16525;BME280;8375;33.594;-117.718;2024-03-08T03:58:04;100229.97;;;13.98;100.00
16525;BME280;8375;33.594;-117.718;2024-03-08T04:00:33;100229.72;;;13.82;100.00
16525;BME280;8375;33.594;-117.718;2024-03-08T04:03:02;100231.78;;;13.78;100.00
16525;BME280;8375;33.594;-117.718;2024-03-08T04:05:31;100233.97;;;13.63;100.00
16525;BME280;8375;33.594;-117.718;2024-03-08T04:08:00;100231.91;;;13.67;100.00
16525;BME280;8375;33.594;-117.718;2024-03-08T04:10:29;100237.81;;;13.69;100.00
16525;BME280;8375;33.594;-117.718;2024-03-08T04:12:59;100241.38;;;13.68;100.00
16525;BME280;8375;33.594;-117.718;2024-03-08T04:15:28;100240.31;;;13.70;100.00
16525;BME280;8375;33.594;-117.718;2024-03-08T04:17:58;100244.56;;;13.71;100.00
16525;BME280;8375;33.594;-117.718;2024-03-08T04:20:27;100247.69;;;13.75;100.00
16525;BME280;8375;33.594;-117.718;2024-03-08T04:22:57;100253.06;;;13.83;100.00
16525;BME280;8375;33.594;-117.718;2024-03-08T04:25:25;100255.53;;;13.75;100.00
16525;BME280;8375;33.594;-117.718;2024-03-08T04:27:55;100257.31;;;13.64;100.00
16525;BME280;8375;33.594;-117.718;2024-03-08T04:30:25;100252.38;;;13.61;100.00
16525;BME280;8375;33.594;-117.718;2024-03-08T04:32:54;100255.25;;;13.58;100.00
16525;BME280;8375;33.594;-117.718;2024-03-08T04:35:23;100253.06;;;13.54;100.00
16525;BME280;8375;33.594;-117.718;2024-03-08T04:37:52;100254.56;;;13.56;100.00
16525;BME280;8375;33.594;-117.718;2024-03-08T04:40:21;100255.41;;;13.57;100.00
16525;BME280;8375;33.594;-117.718;2024-03-08T04:42:50;100264.16;;;13.46;100.00
16525;BME280;8375;33.594;-117.718;2024-03-08T04:45:20;100259.44;;;13.40;100.00
16525;BME280;8375;33.594;-117.718;2024-03-08T04:47:50;100263.56;;;13.32;100.00
16525;BME280;8375;33.594;-117.718;2024-03-08T04:50:19;100263.81;;;13.29;100.00
16525;BME280;8375;33.594;-117.718;2024-03-08T04:52:47;100260.53;;;13.27;100.00
16525;BME280;8375;33.594;-117.718;2024-03-08T04:55:16;100259.97;;;13.33;100.00
16525;BME280;8375;33.594;-117.718;2024-03-08T04:57:47;100264.41;;;13.43;100.00
16525;BME280;8375;33.594;-117.718;2024-03-08T05:00:16;100264.03;;;13.47;100.00
16525;BME280;8375;33.594;-117.718;2024-03-08T05:02:45;100271.59;;;13.51;100.00
16525;BME280;8375;33.594;-117.718;2024-03-08T05:05:15;100281.44;;;13.47;100.00
16525;BME280;8375;33.594;-117.718;2024-03-08T05:07:44;100286.94;;;13.44;100.00
16525;BME280;8375;33.594;-117.718;2024-03-08T05:10:15;100286.63;;;13.37;100.00
16525;BME280;8375;33.594;-117.718;2024-03-08T05:12:44;100292.91;;;13.34;100.00
16525;BME280;8375;33.594;-117.718;2024-03-08T05:15:13;100296.91;;;13.29;100.00
16525;BME280;8375;33.594;-117.718;2024-03-08T05:17:42;100305.63;;;13.18;100.00
16525;BME280;8375;33.594;-117.718;2024-03-08T05:20:11;100305.47;;;13.19;100.00
16525;BME280;8375;33.594;-117.718;2024-03-08T05:22:42;100311.63;;;13.09;100.00
16525;BME280;8375;33.594;-117.718;2024-03-08T05:25:10;100306.00;;;13.03;100.00
16525;BME280;8375;33.594;-117.718;2024-03-08T05:27:40;100315.94;;;12.88;100.00
16525;BME280;8375;33.594;-117.718;2024-03-08T05:30:09;100323.97;;;12.75;100.00
16525;BME280;8375;33.594;-117.718;2024-03-08T05:32:41;100327.34;;;12.66;100.00
16525;BME280;8375;33.594;-117.718;2024-03-08T05:35:11;100325.00;;;12.63;100.00
16525;BME280;8375;33.594;-117.718;2024-03-08T05:37:44;100321.97;;;12.58;100.00
16525;BME280;8375;33.594;-117.718;2024-03-08T05:40:12;100317.97;;;12.54;100.00
16525;BME280;8375;33.594;-117.718;2024-03-08T05:42:41;100323.53;;;12.49;100.00
16525;BME280;8375;33.594;-117.718;2024-03-08T05:45:10;100324.75;;;12.45;100.00
16525;BME280;8375;33.594;-117.718;2024-03-08T05:47:39;100320.75;;;12.41;100.00
16525;BME280;8375;33.594;-117.718;2024-03-08T05:50:09;100329.66;;;12.38;100.00
16525;BME280;8375;33.594;-117.718;2024-03-08T05:52:37;100334.16;;;12.36;100.00
16525;BME280;8375;33.594;-117.718;2024-03-08T05:55:08;100342.22;;;12.33;100.00
16525;BME280;8375;33.594;-117.718;2024-03-08T05:57:37;100345.78;;;12.32;100.00
16525;BME280;8375;33.594;-117.718;2024-03-08T06:00:07;100352.88;;;12.30;100.00
16525;BME280;8375;33.594;-117.718;2024-03-08T06:02:37;100357.38;;;12.28;100.00
16525;BME280;8375;33.594;-117.718;2024-03-08T06:05:09;100359.63;;;12.21;100.00
16525;BME280;8375;33.594;-117.718;2024-03-08T06:07:38;100356.72;;;12.14;100.00
16525;BME280;8375;33.594;-117.718;2024-03-08T06:10:10;100353.19;;;12.15;100.00
16525;BME280;8375;33.594;-117.718;2024-03-08T06:12:39;100355.88;;;12.14;100.00
16525;BME280;8375;33.594;-117.718;2024-03-08T06:15:09;100363.13;;;12.10;100.00
16525;BME280;8375;33.594;-117.718;2024-03-08T06:17:41;100371.03;;;12.09;100.00
16525;BME280;8375;33.594;-117.718;2024-03-08T06:20:10;100374.03;;;12.04;100.00
16525;BME280;8375;33.594;-117.718;2024-03-08T06:22:39;100378.75;;;11.99;100.00
16525;BME280;8375;33.594;-117.718;2024-03-08T06:25:10;100390.59;;;11.92;100.00
16525;BME280;8375;33.594;-117.718;2024-03-08T06:27:40;100394.00;;;11.92;100.00
16525;BME280;8375;33.594;-117.718;2024-03-08T06:30:10;100386.34;;;11.91;100.00
16525;BME280;8375;33.594;-117.718;2024-03-08T06:32:38;100381.00;;;11.92;100.00
16525;BME280;8375;33.594;-117.718;2024-03-08T06:35:09;100386.34;;;11.91;100.00
16525;BME280;8375;33.594;-117.718;2024-03-08T06:37:38;100369.88;;;11.90;100.00
16525;BME280;8375;33.594;-117.718;2024-03-08T06:40:11;100369.06;;;11.89;100.00
16525;BME280;8375;33.594;-117.718;2024-03-08T06:42:40;100371.78;;;11.88;100.00
16525;BME280;8375;33.594;-117.718;2024-03-08T06:45:09;100378.19;;;11.84;100.00
16525;BME280;8375;33.594;-117.718;2024-03-08T06:47:41;100396.63;;;11.81;100.00
16525;BME280;8375;33.594;-117.718;2024-03-08T06:50:10;100399.13;;;11.82;100.00
16525;BME280;8375;33.594;-117.718;2024-03-08T06:52:38;100402.22;;;11.76;100.00
16525;BME280;8375;33.594;-117.718;2024-03-08T06:55:12;100412.63;;;11.42;100.00
16525;BME280;8375;33.594;-117.718;2024-03-08T06:57:40;100420.19;;;11.45;100.00
16525;BME280;8375;33.594;-117.718;2024-03-08T07:00:10;100422.56;;;11.48;100.00
16525;BME280;8375;33.594;-117.718;2024-03-08T07:02:44;100410.75;;;11.44;100.00
16525;BME280;8375;33.594;-117.718;2024-03-08T07:05:15;100400.34;;;11.44;100.00
16525;BME280;8375;33.594;-117.718;2024-03-08T07:07:43;100396.09;;;11.43;100.00
16525;BME280;8375;33.594;-117.718;2024-03-08T07:10:16;100398.56;;;11.44;100.00
16525;BME280;8375;33.594;-117.718;2024-03-08T07:12:45;100404.13;;;11.40;100.00
16525;BME280;8375;33.594;-117.718;2024-03-08T07:15:14;100400.94;;;11.36;100.00
16525;BME280;8375;33.594;-117.718;2024-03-08T07:17:46;100403.66;;;11.35;100.00
16525;BME280;8375;33.594;-117.718;2024-03-08T07:20:15;100406.84;;;11.27;100.00
16525;BME280;8375;33.594;-117.718;2024-03-08T07:22:45;100409.09;;;11.20;100.00
16525;BME280;8375;33.594;-117.718;2024-03-08T07:25:18;100417.69;;;11.09;100.00
16525;BME280;8375;33.594;-117.718;2024-03-08T07:27:51;100417.81;;;11.08;100.00
16525;BME280;8375;33.594;-117.718;2024-03-08T07:30:21;100418.28;;;11.02;100.00
16525;BME280;8375;33.594;-117.718;2024-03-08T07:33:06;100425.22;;;11.01;100.00
16525;BME280;8375;33.594;-117.718;2024-03-08T07:35:38;100417.56;;;10.99;100.00
16525;BME280;8375;33.594;-117.718;2024-03-08T07:38:07;100416.94;;;10.96;100.00
16525;BME280;8375;33.594;-117.718;2024-03-08T07:40:38;100422.28;;;10.94;100.00
16525;BME280;8375;33.594;-117.718;2024-03-08T07:43:09;100418.84;;;10.94;100.00
16525;BME280;8375;33.594;-117.718;2024-03-08T07:45:37;100424.88;;;10.94;100.00
16525;BME280;8375;33.594;-117.718;2024-03-08T07:48:12;100433.13;;;10.88;100.00
16525;BME280;8375;33.594;-117.718;2024-03-08T07:50:41;100437.59;;;10.86;100.00
16525;BME280;8375;33.594;-117.718;2024-03-08T10:02:40;100474.53;;;9.53;100.00
16525;BME280;8375;33.594;-117.718;2024-03-08T10:05:09;100472.16;;;9.50;100.00
16525;BME280;8375;33.594;-117.718;2024-03-08T10:07:37;100472.16;;;9.50;100.00
16525;BME280;8375;33.594;-117.718;2024-03-08T10:10:07;100469.97;;;9.44;100.00
16525;BME280;8375;33.594;-117.718;2024-03-08T10:12:39;100462.41;;;9.41;100.00
16525;BME280;8375;33.594;-117.718;2024-03-08T10:15:08;100462.31;;;9.43;100.00
16525;BME280;8375;33.594;-117.718;2024-03-08T10:17:40;100458.28;;;9.38;100.00
16525;BME280;8375;33.594;-117.718;2024-03-08T10:20:14;100455.69;;;9.38;100.00
16525;BME280;8375;33.594;-117.718;2024-03-08T10:22:43;100451.31;;;9.39;100.00
16525;BME280;8375;33.594;-117.718;2024-03-08T10:25:12;100449.88;;;9.35;100.00
16525;BME280;8375;33.594;-117.718;2024-03-08T10:27:41;100443.88;;;9.34;100.00
16525;BME280;8375;33.594;-117.718;2024-03-08T10:30:12;100442.94;;;9.22;100.00
16525;BME280;8375;33.594;-117.718;2024-03-08T10:32:44;100439.50;;;8.96;100.00
16525;BME280;8375;33.594;-117.718;2024-03-08T10:35:13;100426.66;;;8.94;100.00
16525;BME280;8375;33.594;-117.718;2024-03-08T10:37:45;100433.50;;;8.95;100.00
16525;BME280;8375;33.594;-117.718;2024-03-08T10:40:17;100434.75;;;8.90;100.00
16525;BME280;8375;33.594;-117.718;2024-03-08T10:42:53;100431.81;;;8.94;100.00
16525;BME280;8375;33.594;-117.718;2024-03-08T10:45:31;100438.78;;;8.94;100.00
16525;BME280;8375;33.594;-117.718;2024-03-08T10:48:13;100434.41;;;8.94;100.00
16525;BME280;8375;33.594;-117.718;2024-03-08T10:50:47;100435.25;;;8.95;100.00
16525;BME280;8375;33.594;-117.718;2024-03-08T10:53:18;100429.25;;;8.94;100.00
16525;BME280;8375;33.594;-117.718;2024-03-08T10:55:47;100425.94;;;8.92;100.00
16525;BME280;8375;33.594;-117.718;2024-03-08T10:58:20;100429.44;;;8.91;100.00
16525;BME280;8375;33.594;-117.718;2024-03-08T11:00:49;100433.81;;;8.91;100.00
16525;BME280;8375;33.594;-117.718;2024-03-08T11:03:46;100425.00;;;8.93;100.00
16525;BME280;8375;33.594;-117.718;2024-03-08T11:06:17;100430.66;;;8.73;100.00
16525;BME280;8375;33.594;-117.718;2024-03-08T11:08:49;100427.44;;;8.69;100.00
16525;BME280;8375;33.594;-117.718;2024-03-08T11:11:27;100426.41;;;8.72;100.00
16525;BME280;8375;33.594;-117.718;2024-03-08T11:13:57;100420.31;;;8.73;100.00
16525;BME280;8375;33.594;-117.718;2024-03-08T11:16:39;100420.09;;;8.76;100.00
16525;BME280;8375;33.594;-117.718;2024-03-08T11:19:26;100411.72;;;8.72;100.00
16525;BME280;8375;33.594;-117.718;2024-03-08T11:21:59;100414.59;;;8.68;100.00
16525;BME280;8375;33.594;-117.718;2024-03-08T11:24:27;100420.31;;;8.73;100.00
16525;BME280;8375;33.594;-117.718;2024-03-08T11:26:57;100428.78;;;8.75;100.00
16525;BME280;8375;33.594;-117.718;2024-03-08T11:29:35;100441.72;;;8.75;100.00
16525;BME280;8375;33.594;-117.718;2024-03-08T11:32:08;100446.56;;;8.54;100.00
16525;BME280;8375;33.594;-117.718;2024-03-08T11:34:40;100446.91;;;8.62;100.00
16525;BME280;8375;33.594;-117.718;2024-03-08T11:37:15;100445.03;;;8.64;100.00
16525;BME280;8375;33.594;-117.718;2024-03-08T11:39:47;100454.16;;;8.70;100.00
16525;BME280;8375;33.594;-117.718;2024-03-08T11:42:17;100449.81;;;8.70;100.00
16525;BME280;8375;33.594;-117.718;2024-03-08T11:44:46;100456.22;;;8.64;100.00
16525;BME280;8375;33.594;-117.718;2024-03-08T11:47:15;100457.78;;;8.67;100.00
16525;BME280;8375;33.594;-117.718;2024-03-08T11:49:46;100450.84;;;8.68;100.00
16525;BME280;8375;33.594;-117.718;2024-03-08T11:52:16;100459.31;;;8.70;100.00
16525;BME280;8375;33.594;-117.718;2024-03-08T11:54:51;100452.69;;;8.65;100.00
16525;BME280;8375;33.594;-117.718;2024-03-08T11:57:23;100456.31;;;8.63;100.00
16525;BME280;8375;33.594;-117.718;2024-03-08T11:59:52;100474.19;;;8.53;100.00
16525;BME280;8375;33.594;-117.718;2024-03-08T12:02:21;100482.88;;;8.52;100.00
16525;BME280;8375;33.594;-117.718;2024-03-08T12:04:58;100483.53;;;8.56;100.00
16525;BME280;8375;33.594;-117.718;2024-03-08T12:07:29;100491.69;;;8.49;100.00
16525;BME280;8375;33.594;-117.718;2024-03-08T12:10:18;100492.56;;;8.48;100.00
16525;BME280;8375;33.594;-117.718;2024-03-08T12:12:49;100489.25;;;8.46;100.00
16525;BME280;8375;33.594;-117.718;2024-03-08T12:15:18;100490.34;;;8.57;100.00
16525;BME280;8375;33.594;-117.718;2024-03-08T12:17:48;100492.97;;;9.10;100.00
16525;BME280;8375;33.594;-117.718;2024-03-08T12:20:21;100498.34;;;9.84;100.00
16525;BME280;8375;33.594;-117.718;2024-03-08T12:22:50;100502.84;;;9.57;100.00
16525;BME280;8375;33.594;-117.718;2024-03-08T12:25:20;100509.19;;;9.65;100.00
16525;BME280;8375;33.594;-117.718;2024-03-08T12:27:49;100511.34;;;9.72;100.00
16525;BME280;8375;33.594;-117.718;2024-03-08T12:30:20;100518.00;;;9.50;100.00
16525;BME280;8375;33.594;-117.718;2024-03-08T12:32:52;100528.00;;;9.29;100.00
16525;BME280;8375;33.594;-117.718;2024-03-08T12:35:25;100529.34;;;9.21;100.00
16525;BME280;8375;33.594;-117.718;2024-03-08T12:37:55;100534.59;;;9.07;100.00
16525;BME280;8375;33.594;-117.718;2024-03-08T12:40:28;100537.91;;;8.96;100.00
16525;BME280;8375;33.594;-117.718;2024-03-08T12:42:58;100543.56;;;8.88;100.00
16525;BME280;8375;33.594;-117.718;2024-03-08T12:45:27;100554.69;;;8.76;100.00
16525;BME280;8375;33.594;-117.718;2024-03-08T12:47:55;100561.84;;;8.72;100.00
16525;BME280;8375;33.594;-117.718;2024-03-08T12:50:27;100562.44;;;8.63;100.00
16525;BME280;8375;33.594;-117.718;2024-03-08T12:52:56;100555.25;;;8.54;100.00
16525;BME280;8375;33.594;-117.718;2024-03-08T12:55:25;100567.69;;;8.47;100.00
16525;BME280;8375;33.594;-117.718;2024-03-08T12:57:53;100570.38;;;8.45;100.00
16525;BME280;8375;33.594;-117.718;2024-03-08T13:00:22;100563.63;;;8.43;100.00
16525;BME280;8375;33.594;-117.718;2024-03-08T13:02:51;100569.72;;;8.42;100.00
16525;BME280;8375;33.594;-117.718;2024-03-08T13:05:19;100571.75;;;8.36;100.00
16525;BME280;8375;33.594;-117.718;2024-03-08T13:07:50;100573.53;;;8.36;100.00
16525;BME280;8375;33.594;-117.718;2024-03-08T13:10:19;100590.34;;;8.29;100.00
16525;BME280;8375;33.594;-117.718;2024-03-08T13:12:49;100581.38;;;8.34;100.00
16525;BME280;8375;33.594;-117.718;2024-03-08T13:15:19;100591.53;;;8.23;100.00
16525;BME280;8375;33.594;-117.718;2024-03-08T13:17:48;100591.53;;;8.23;100.00
16525;BME280;8375;33.594;-117.718;2024-03-08T13:20:19;100592.22;;;8.27;100.00
16525;BME280;8375;33.594;-117.718;2024-03-08T13:22:51;100588.03;;;8.24;100.00
16525;BME280;8375;33.594;-117.718;2024-03-08T13:25:19;100600.91;;;8.26;100.00
16525;BME280;8375;33.594;-117.718;2024-03-08T13:27:48;100603.00;;;8.19;100.00
16525;BME280;8375;33.594;-117.718;2024-03-08T13:30:17;100607.63;;;8.14;100.00
16525;BME280;8375;33.594;-117.718;2024-03-08T13:32:52;100609.47;;;8.12;100.00
16525;BME280;8375;33.594;-117.718;2024-03-08T13:35:20;100614.38;;;8.16;100.00
16525;BME280;8375;33.594;-117.718;2024-03-08T13:37:52;100623.50;;;8.22;100.00
16525;BME280;8375;33.594;-117.718;2024-03-08T13:40:21;100625.28;;;8.21;100.00
16525;BME280;8375;33.594;-117.718;2024-03-08T13:42:49;100625.72;;;8.14;100.00
16525;BME280;8375;33.594;-117.718;2024-03-08T13:45:18;100629.16;;;8.14;100.00
16525;BME280;8375;33.594;-117.718;2024-03-08T13:47:49;100631.44;;;8.19;100.00
16525;BME280;8375;33.594;-117.718;2024-03-08T13:50:17;100636.63;;;8.19;100.00
16525;BME280;8375;33.594;-117.718;2024-03-08T13:52:47;100635.16;;;8.15;100.00
16525;BME280;8375;33.594;-117.718;2024-03-08T13:55:19;100646.34;;;8.15;100.00
16525;BME280;8375;33.594;-117.718;2024-03-08T13:57:48;100635.16;;;8.15;100.00
16525;BME280;8375;33.594;-117.718;2024-03-08T14:00:18;100642.72;;;8.18;100.00
16525;BME280;8375;33.594;-117.718;2024-03-08T14:02:49;100648.63;;;8.05;100.00
16525;BME280;8375;33.594;-117.718;2024-03-08T14:05:17;100648.38;;;8.10;100.00
16525;BME280;8375;33.594;-117.718;2024-03-08T14:07:46;100658.78;;;8.08;100.00
16525;BME280;8375;33.594;-117.718;2024-03-08T14:10:16;100657.97;;;8.08;100.00
16525;BME280;8375;33.594;-117.718;2024-03-08T14:12:48;100668.56;;;8.03;100.00
16525;BME280;8375;33.594;-117.718;2024-03-08T14:15:16;100659.16;;;8.02;100.00
16525;BME280;8375;33.594;-117.718;2024-03-08T14:17:51;100672.25;;;7.99;100.00
16525;BME280;8375;33.594;-117.718;2024-03-08T14:20:20;100669.47;;;8.02;100.00
16525;BME280;8375;33.594;-117.718;2024-03-08T14:22:52;100677.69;;;8.54;100.00
16525;BME280;8375;33.594;-117.718;2024-03-08T14:25:23;100679.69;;;8.78;100.00
16525;BME280;8375;33.594;-117.718;2024-03-08T14:27:53;100684.66;;;8.95;100.00
16525;BME280;8375;33.594;-117.718;2024-03-08T14:30:24;100685.84;;;9.32;100.00
16525;BME280;8375;33.594;-117.718;2024-03-08T14:33:05;100686.19;;;9.67;100.00
16525;BME280;8375;33.594;-117.718;2024-03-08T14:35:35;100686.25;;;9.66;100.00
16525;BME280;8375;33.594;-117.718;2024-03-08T14:38:04;100696.56;;;9.80;100.00
16525;BME280;8375;33.594;-117.718;2024-03-08T14:40:34;100698.53;;;9.90;100.00
16525;BME280;8375;33.594;-117.718;2024-03-08T14:43:05;100697.00;;;10.00;100.00
16525;BME280;8375;33.594;-117.718;2024-03-08T14:45:34;100701.56;;;10.09;100.00
16525;BME280;8375;33.594;-117.718;2024-03-08T14:48:04;100709.38;;;10.35;100.00
16525;BME280;8375;33.594;-117.718;2024-03-08T14:50:32;100716.88;;;10.53;100.00